sensor_id;sensor_type;location;lat;lon;timestamp;P1;durP1;ratioP1;P2;durP2;ratioP2
49826;SDS011;35715;51.570;6.036;2023-07-31T00:01:01;10.63;;;5.60;;
49826;SDS011;35715;51.570;6.036;2023-07-31T00:03:27;15.80;;;6.85;;
49826;SDS011;35715;51.570;6.036;2023-07-31T00:05:52;17.50;;;6.38;;
49826;SDS011;35715;51.570;6.036;2023-07-31T00:08:17;18.00;;;8.80;;
49826;SDS011;35715;51.570;6.036;2023-07-31T00:10:43;27.55;;;8.48;;
49826;SDS011;35715;51.570;6.036;2023-07-31T00:13:08;18.42;;;7.85;;
49826;SDS011;35715;51.570;6.036;2023-07-31T00:15:34;15.80;;;8.70;;
49826;SDS011;35715;51.570;6.036;2023-07-31T00:17:59;17.38;;;7.85;;
49826;SDS011;35715;51.570;6.036;2023-07-31T00:20:26;16.35;;;7.53;;
49826;SDS011;35715;51.570;6.036;2023-07-31T00:22:51;20.15;;;8.23;;
49826;SDS011;35715;51.570;6.036;2023-07-31T00:25:16;21.75;;;7.65;;
49826;SDS011;35715;51.570;6.036;2023-07-31T00:27:42;20.98;;;9.10;;
49826;SDS011;35715;51.570;6.036;2023-07-31T00:30:09;20.42;;;9.48;;
49826;SDS011;35715;51.570;6.036;2023-07-31T00:32:35;17.88;;;8.63;;
49826;SDS011;35715;51.570;6.036;2023-07-31T00:35:01;13.45;;;7.13;;
49826;SDS011;35715;51.570;6.036;2023-07-31T00:37:26;28.42;;;9.65;;
49826;SDS011;35715;51.570;6.036;2023-07-31T00:39:55;13.25;;;6.13;;
49826;SDS011;35715;51.570;6.036;2023-07-31T00:42:20;16.95;;;7.43;;
49826;SDS011;35715;51.570;6.036;2023-07-31T00:44:45;20.85;;;7.97;;
49826;SDS011;35715;51.570;6.036;2023-07-31T00:47:11;13.93;;;5.53;;
49826;SDS011;35715;51.570;6.036;2023-07-31T00:49:36;16.73;;;7.82;;
49826;SDS011;35715;51.570;6.036;2023-07-31T00:52:02;19.85;;;7.28;;
49826;SDS011;35715;51.570;6.036;2023-07-31T00:54:28;21.77;;;6.68;;
49826;SDS011;35715;51.570;6.036;2023-07-31T00:56:53;22.90;;;7.32;;
49826;SDS011;35715;51.570;6.036;2023-07-31T00:59:19;20.08;;;6.47;;
49826;SDS011;35715;51.570;6.036;2023-07-31T01:01:45;14.35;;;6.07;;
49826;SDS011;35715;51.570;6.036;2023-07-31T01:04:11;14.50;;;6.95;;
49826;SDS011;35715;51.570;6.036;2023-07-31T01:06:44;14.32;;;6.63;;
49826;SDS011;35715;51.570;6.036;2023-07-31T01:11:52;18.38;;;8.10;;
49826;SDS011;35715;51.570;6.036;2023-07-31T01:14:18;9.18;;;4.90;;
49826;SDS011;35715;51.570;6.036;2023-07-31T01:16:44;15.80;;;5.68;;
49826;SDS011;35715;51.570;6.036;2023-07-31T01:19:10;19.98;;;7.18;;
49826;SDS011;35715;51.570;6.036;2023-07-31T01:24:43;19.40;;;6.50;;
49826;SDS011;35715;51.570;6.036;2023-07-31T01:27:17;8.90;;;4.18;;
49826;SDS011;35715;51.570;6.036;2023-07-31T01:30:09;12.95;;;5.90;;
49826;SDS011;35715;51.570;6.036;2023-07-31T01:32:50;13.07;;;6.10;;
49826;SDS011;35715;51.570;6.036;2023-07-31T01:35:18;20.30;;;7.05;;
49826;SDS011;35715;51.570;6.036;2023-07-31T01:37:45;15.13;;;5.57;;
49826;SDS011;35715;51.570;6.036;2023-07-31T01:40:10;10.38;;;5.78;;
49826;SDS011;35715;51.570;6.036;2023-07-31T01:42:36;10.30;;;5.47;;
49826;SDS011;35715;51.570;6.036;2023-07-31T01:45:01;12.55;;;5.93;;
49826;SDS011;35715;51.570;6.036;2023-07-31T01:47:27;8.70;;;4.63;;
49826;SDS011;35715;51.570;6.036;2023-07-31T01:49:52;17.98;;;6.47;;
49826;SDS011;35715;51.570;6.036;2023-07-31T01:52:18;20.20;;;7.63;;
49826;SDS011;35715;51.570;6.036;2023-07-31T01:54:43;11.85;;;4.70;;
49826;SDS011;35715;51.570;6.036;2023-07-31T01:57:08;10.82;;;4.68;;
49826;SDS011;35715;51.570;6.036;2023-07-31T01:59:34;14.85;;;5.70;;
49826;SDS011;35715;51.570;6.036;2023-07-31T02:01:59;11.02;;;5.03;;
49826;SDS011;35715;51.570;6.036;2023-07-31T02:04:24;11.45;;;6.05;;
49826;SDS011;35715;51.570;6.036;2023-07-31T02:06:50;14.60;;;6.28;;
49826;SDS011;35715;51.570;6.036;2023-07-31T02:09:15;12.70;;;5.43;;
49826;SDS011;35715;51.570;6.036;2023-07-31T02:11:40;10.85;;;4.13;;
49826;SDS011;35715;51.570;6.036;2023-07-31T02:14:06;9.23;;;5.95;;
49826;SDS011;35715;51.570;6.036;2023-07-31T02:16:31;11.63;;;5.80;;
49826;SDS011;35715;51.570;6.036;2023-07-31T02:18:57;14.55;;;5.45;;
49826;SDS011;35715;51.570;6.036;2023-07-31T02:21:22;11.00;;;5.90;;
49826;SDS011;35715;51.570;6.036;2023-07-31T02:23:50;20.73;;;6.95;;
49826;SDS011;35715;51.570;6.036;2023-07-31T02:26:16;15.27;;;6.80;;
49826;SDS011;35715;51.570;6.036;2023-07-31T02:28:41;19.17;;;5.53;;
49826;SDS011;35715;51.570;6.036;2023-07-31T02:31:08;13.48;;;7.93;;
49826;SDS011;35715;51.570;6.036;2023-07-31T02:33:33;17.42;;;6.60;;
49826;SDS011;35715;51.570;6.036;2023-07-31T02:35:59;21.42;;;8.15;;
49826;SDS011;35715;51.570;6.036;2023-07-31T02:38:24;17.33;;;6.22;;
49826;SDS011;35715;51.570;6.036;2023-07-31T02:40:49;21.33;;;6.88;;
49826;SDS011;35715;51.570;6.036;2023-07-31T02:43:15;16.42;;;7.60;;
49826;SDS011;35715;51.570;6.036;2023-07-31T02:45:40;19.70;;;7.10;;
49826;SDS011;35715;51.570;6.036;2023-07-31T02:48:08;9.02;;;5.05;;
49826;SDS011;35715;51.570;6.036;2023-07-31T02:50:34;14.00;;;5.68;;
49826;SDS011;35715;51.570;6.036;2023-07-31T02:53:05;18.58;;;7.43;;
49826;SDS011;35715;51.570;6.036;2023-07-31T02:55:30;19.67;;;7.70;;
49826;SDS011;35715;51.570;6.036;2023-07-31T02:57:56;18.02;;;6.82;;
49826;SDS011;35715;51.570;6.036;2023-07-31T03:00:21;12.63;;;5.60;;
49826;SDS011;35715;51.570;6.036;2023-07-31T03:02:47;9.30;;;5.28;;
49826;SDS011;35715;51.570;6.036;2023-07-31T03:05:12;12.35;;;6.53;;
49826;SDS011;35715;51.570;6.036;2023-07-31T03:07:37;21.55;;;7.90;;
49826;SDS011;35715;51.570;6.036;2023-07-31T03:10:03;10.77;;;5.50;;
49826;SDS011;35715;51.570;6.036;2023-07-31T03:12:28;13.35;;;5.97;;
49826;SDS011;35715;51.570;6.036;2023-07-31T03:14:54;30.55;;;8.98;;
49826;SDS011;35715;51.570;6.036;2023-07-31T03:17:19;19.08;;;6.93;;
49826;SDS011;35715;51.570;6.036;2023-07-31T03:19:44;16.05;;;5.50;;
49826;SDS011;35715;51.570;6.036;2023-07-31T03:22:10;20.77;;;7.72;;
49826;SDS011;35715;51.570;6.036;2023-07-31T03:24:35;19.73;;;7.93;;
49826;SDS011;35715;51.570;6.036;2023-07-31T03:27:00;14.32;;;5.97;;
49826;SDS011;35715;51.570;6.036;2023-07-31T03:29:26;10.77;;;5.90;;
49826;SDS011;35715;51.570;6.036;2023-07-31T03:31:51;15.95;;;6.50;;
49826;SDS011;35715;51.570;6.036;2023-07-31T03:34:17;10.57;;;5.05;;
49826;SDS011;35715;51.570;6.036;2023-07-31T03:36:42;12.48;;;5.25;;
49826;SDS011;35715;51.570;6.036;2023-07-31T03:39:08;13.68;;;6.03;;
49826;SDS011;35715;51.570;6.036;2023-07-31T03:41:33;15.48;;;5.85;;
49826;SDS011;35715;51.570;6.036;2023-07-31T03:43:58;15.18;;;6.15;;
49826;SDS011;35715;51.570;6.036;2023-07-31T03:46:24;12.50;;;5.35;;
49826;SDS011;35715;51.570;6.036;2023-07-31T03:48:49;15.38;;;5.72;;
49826;SDS011;35715;51.570;6.036;2023-07-31T03:51:15;10.77;;;5.93;;
49826;SDS011;35715;51.570;6.036;2023-07-31T03:53:42;23.00;;;7.15;;
49826;SDS011;35715;51.570;6.036;2023-07-31T03:56:07;13.75;;;5.72;;
49826;SDS011;35715;51.570;6.036;2023-07-31T03:58:32;12.25;;;5.75;;
49826;SDS011;35715;51.570;6.036;2023-07-31T04:00:58;12.70;;;6.05;;
49826;SDS011;35715;51.570;6.036;2023-07-31T04:03:23;10.70;;;5.72;;
49826;SDS011;35715;51.570;6.036;2023-07-31T04:05:49;10.35;;;5.15;;
49826;SDS011;35715;51.570;6.036;2023-07-31T04:08:14;13.65;;;6.13;;
49826;SDS011;35715;51.570;6.036;2023-07-31T04:10:39;8.75;;;4.60;;
49826;SDS011;35715;51.570;6.036;2023-07-31T04:13:05;15.57;;;5.25;;
49826;SDS011;35715;51.570;6.036;2023-07-31T04:15:30;17.75;;;6.03;;
49826;SDS011;35715;51.570;6.036;2023-07-31T04:17:55;21.40;;;7.18;;
49826;SDS011;35715;51.570;6.036;2023-07-31T04:20:21;14.10;;;5.00;;
49826;SDS011;35715;51.570;6.036;2023-07-31T04:22:46;11.68;;;6.20;;
49826;SDS011;35715;51.570;6.036;2023-07-31T04:25:12;12.82;;;5.55;;
49826;SDS011;35715;51.570;6.036;2023-07-31T04:27:37;17.98;;;6.53;;
49826;SDS011;35715;51.570;6.036;2023-07-31T04:30:02;11.98;;;5.72;;
49826;SDS011;35715;51.570;6.036;2023-07-31T04:32:28;15.82;;;5.88;;
49826;SDS011;35715;51.570;6.036;2023-07-31T04:34:54;16.42;;;6.28;;
49826;SDS011;35715;51.570;6.036;2023-07-31T04:37:20;30.10;;;6.75;;
49826;SDS011;35715;51.570;6.036;2023-07-31T04:39:45;16.67;;;6.20;;
49826;SDS011;35715;51.570;6.036;2023-07-31T04:42:11;11.02;;;6.03;;
49826;SDS011;35715;51.570;6.036;2023-07-31T04:44:36;12.05;;;6.43;;
49826;SDS011;35715;51.570;6.036;2023-07-31T04:47:01;15.43;;;7.15;;
49826;SDS011;35715;51.570;6.036;2023-07-31T04:49:27;13.80;;;5.85;;
49826;SDS011;35715;51.570;6.036;2023-07-31T04:51:52;16.48;;;6.90;;
49826;SDS011;35715;51.570;6.036;2023-07-31T04:54:18;12.05;;;6.60;;
49826;SDS011;35715;51.570;6.036;2023-07-31T04:56:43;13.90;;;5.35;;
49826;SDS011;35715;51.570;6.036;2023-07-31T04:59:08;13.30;;;5.20;;
49826;SDS011;35715;51.570;6.036;2023-07-31T05:01:34;14.25;;;5.47;;
49826;SDS011;35715;51.570;6.036;2023-07-31T05:03:59;13.98;;;5.65;;
49826;SDS011;35715;51.570;6.036;2023-07-31T05:06:25;13.85;;;5.43;;
49826;SDS011;35715;51.570;6.036;2023-07-31T05:08:50;14.40;;;6.03;;
49826;SDS011;35715;51.570;6.036;2023-07-31T05:11:15;11.82;;;5.57;;
49826;SDS011;35715;51.570;6.036;2023-07-31T05:13:41;13.25;;;5.47;;
49826;SDS011;35715;51.570;6.036;2023-07-31T05:16:06;11.93;;;6.50;;
49826;SDS011;35715;51.570;6.036;2023-07-31T05:18:31;10.98;;;6.20;;
49826;SDS011;35715;51.570;6.036;2023-07-31T05:20:57;23.75;;;7.20;;
49826;SDS011;35715;51.570;6.036;2023-07-31T05:23:25;11.25;;;6.75;;
49826;SDS011;35715;51.570;6.036;2023-07-31T05:25:51;10.70;;;5.28;;
49826;SDS011;35715;51.570;6.036;2023-07-31T05:28:16;11.60;;;5.15;;
49826;SDS011;35715;51.570;6.036;2023-07-31T05:31:02;13.57;;;5.13;;
49826;SDS011;35715;51.570;6.036;2023-07-31T05:33:28;11.23;;;6.43;;
49826;SDS011;35715;51.570;6.036;2023-07-31T05:35:53;11.60;;;5.60;;
49826;SDS011;35715;51.570;6.036;2023-07-31T05:38:19;8.02;;;4.80;;
49826;SDS011;35715;51.570;6.036;2023-07-31T05:40:44;10.02;;;5.78;;
49826;SDS011;35715;51.570;6.036;2023-07-31T05:43:10;7.35;;;4.95;;
49826;SDS011;35715;51.570;6.036;2023-07-31T05:45:35;12.20;;;5.18;;
49826;SDS011;35715;51.570;6.036;2023-07-31T05:48:02;8.20;;;5.95;;
49826;SDS011;35715;51.570;6.036;2023-07-31T05:50:27;9.30;;;4.97;;
49826;SDS011;35715;51.570;6.036;2023-07-31T05:52:53;7.43;;;3.85;;
49826;SDS011;35715;51.570;6.036;2023-07-31T05:55:18;14.02;;;5.60;;
49826;SDS011;35715;51.570;6.036;2023-07-31T05:57:43;9.45;;;4.65;;
49826;SDS011;35715;51.570;6.036;2023-07-31T06:00:12;12.05;;;4.50;;
49826;SDS011;35715;51.570;6.036;2023-07-31T06:02:38;6.60;;;4.03;;
49826;SDS011;35715;51.570;6.036;2023-07-31T06:05:04;8.90;;;4.32;;
49826;SDS011;35715;51.570;6.036;2023-07-31T06:07:31;8.60;;;4.15;;
49826;SDS011;35715;51.570;6.036;2023-07-31T06:09:56;5.47;;;4.32;;
49826;SDS011;35715;51.570;6.036;2023-07-31T06:12:27;9.73;;;4.97;;
49826;SDS011;35715;51.570;6.036;2023-07-31T06:14:52;10.48;;;4.78;;
49826;SDS011;35715;51.570;6.036;2023-07-31T06:17:17;8.05;;;4.55;;
49826;SDS011;35715;51.570;6.036;2023-07-31T06:19:43;8.95;;;5.00;;
49826;SDS011;35715;51.570;6.036;2023-07-31T06:22:09;11.15;;;4.47;;
49826;SDS011;35715;51.570;6.036;2023-07-31T06:24:34;17.02;;;6.72;;
49826;SDS011;35715;51.570;6.036;2023-07-31T06:26:59;6.97;;;5.47;;
49826;SDS011;35715;51.570;6.036;2023-07-31T06:29:25;6.82;;;5.90;;
49826;SDS011;35715;51.570;6.036;2023-07-31T06:31:50;6.38;;;5.63;;
49826;SDS011;35715;51.570;6.036;2023-07-31T06:34:16;6.90;;;5.95;;
49826;SDS011;35715;51.570;6.036;2023-07-31T06:36:41;6.22;;;4.88;;
49826;SDS011;35715;51.570;6.036;2023-07-31T06:39:07;9.27;;;5.45;;
49826;SDS011;35715;51.570;6.036;2023-07-31T06:41:34;6.40;;;4.60;;
49826;SDS011;35715;51.570;6.036;2023-07-31T06:43:59;6.85;;;5.25;;
49826;SDS011;35715;51.570;6.036;2023-07-31T06:46:24;6.15;;;4.35;;
49826;SDS011;35715;51.570;6.036;2023-07-31T06:48:50;7.05;;;4.90;;
49826;SDS011;35715;51.570;6.036;2023-07-31T06:51:15;5.18;;;4.72;;
49826;SDS011;35715;51.570;6.036;2023-07-31T06:53:41;8.88;;;4.25;;
49826;SDS011;35715;51.570;6.036;2023-07-31T06:56:07;10.10;;;5.35;;
49826;SDS011;35715;51.570;6.036;2023-07-31T06:58:32;6.97;;;4.47;;
49826;SDS011;35715;51.570;6.036;2023-07-31T07:00:57;6.00;;;4.57;;
49826;SDS011;35715;51.570;6.036;2023-07-31T07:03:23;6.82;;;4.22;;
49826;SDS011;35715;51.570;6.036;2023-07-31T07:05:48;4.13;;;3.40;;
49826;SDS011;35715;51.570;6.036;2023-07-31T07:08:13;7.75;;;4.35;;
49826;SDS011;35715;51.570;6.036;2023-07-31T07:10:39;5.40;;;4.90;;
49826;SDS011;35715;51.570;6.036;2023-07-31T07:13:04;5.22;;;4.65;;
49826;SDS011;35715;51.570;6.036;2023-07-31T07:15:29;7.00;;;3.65;;
49826;SDS011;35715;51.570;6.036;2023-07-31T07:17:55;6.28;;;5.25;;
49826;SDS011;35715;51.570;6.036;2023-07-31T07:20:21;6.35;;;3.85;;
49826;SDS011;35715;51.570;6.036;2023-07-31T07:22:46;7.38;;;4.65;;
49826;SDS011;35715;51.570;6.036;2023-07-31T07:25:11;3.90;;;3.55;;
49826;SDS011;35715;51.570;6.036;2023-07-31T07:27:37;6.65;;;3.83;;
49826;SDS011;35715;51.570;6.036;2023-07-31T07:30:02;6.25;;;3.72;;
49826;SDS011;35715;51.570;6.036;2023-07-31T07:32:28;5.35;;;4.07;;
49826;SDS011;35715;51.570;6.036;2023-07-31T07:34:54;5.28;;;3.92;;
49826;SDS011;35715;51.570;6.036;2023-07-31T07:37:20;3.63;;;3.15;;
49826;SDS011;35715;51.570;6.036;2023-07-31T07:39:46;4.22;;;3.60;;
49826;SDS011;35715;51.570;6.036;2023-07-31T07:42:11;3.22;;;2.97;;
49826;SDS011;35715;51.570;6.036;2023-07-31T07:44:36;3.60;;;2.97;;
49826;SDS011;35715;51.570;6.036;2023-07-31T07:47:02;6.07;;;3.95;;
49826;SDS011;35715;51.570;6.036;2023-07-31T07:49:28;5.68;;;3.55;;
49826;SDS011;35715;51.570;6.036;2023-07-31T07:51:53;5.82;;;4.05;;
49826;SDS011;35715;51.570;6.036;2023-07-31T07:54:18;5.40;;;3.30;;
49826;SDS011;35715;51.570;6.036;2023-07-31T07:56:46;4.47;;;3.40;;
49826;SDS011;35715;51.570;6.036;2023-07-31T07:59:11;3.75;;;3.30;;
49826;SDS011;35715;51.570;6.036;2023-07-31T08:01:36;3.50;;;3.20;;
49826;SDS011;35715;51.570;6.036;2023-07-31T08:04:02;3.67;;;3.40;;
49826;SDS011;35715;51.570;6.036;2023-07-31T08:06:27;3.65;;;3.08;;
49826;SDS011;35715;51.570;6.036;2023-07-31T08:08:54;4.93;;;2.80;;
49826;SDS011;35715;51.570;6.036;2023-07-31T08:11:20;3.00;;;2.58;;
49826;SDS011;35715;51.570;6.036;2023-07-31T08:13:47;3.20;;;2.90;;
49826;SDS011;35715;51.570;6.036;2023-07-31T08:16:12;3.40;;;3.03;;
49826;SDS011;35715;51.570;6.036;2023-07-31T08:18:37;5.28;;;2.80;;
49826;SDS011;35715;51.570;6.036;2023-07-31T08:21:03;4.68;;;3.33;;
49826;SDS011;35715;51.570;6.036;2023-07-31T08:23:30;9.45;;;4.03;;
49826;SDS011;35715;51.570;6.036;2023-07-31T08:25:55;3.83;;;2.78;;
49826;SDS011;35715;51.570;6.036;2023-07-31T08:28:20;4.15;;;3.40;;
49826;SDS011;35715;51.570;6.036;2023-07-31T08:30:46;3.90;;;3.55;;
49826;SDS011;35715;51.570;6.036;2023-07-31T08:33:11;5.22;;;3.50;;
49826;SDS011;35715;51.570;6.036;2023-07-31T08:35:37;4.85;;;3.30;;
49826;SDS011;35715;51.570;6.036;2023-07-31T08:38:02;5.65;;;2.72;;
49826;SDS011;35715;51.570;6.036;2023-07-31T08:40:28;8.23;;;3.92;;
49826;SDS011;35715;51.570;6.036;2023-07-31T08:42:54;3.42;;;2.97;;
49826;SDS011;35715;51.570;6.036;2023-07-31T08:45:22;8.15;;;3.67;;
49826;SDS011;35715;51.570;6.036;2023-07-31T08:47:51;6.20;;;3.35;;
49826;SDS011;35715;51.570;6.036;2023-07-31T08:50:17;7.15;;;4.47;;
49826;SDS011;35715;51.570;6.036;2023-07-31T08:52:45;4.25;;;3.17;;
49826;SDS011;35715;51.570;6.036;2023-07-31T08:55:11;7.07;;;4.40;;
49826;SDS011;35715;51.570;6.036;2023-07-31T08:57:37;7.40;;;4.03;;
49826;SDS011;35715;51.570;6.036;2023-07-31T09:00:04;7.57;;;4.93;;
49826;SDS011;35715;51.570;6.036;2023-07-31T09:02:52;4.85;;;3.97;;
49826;SDS011;35715;51.570;6.036;2023-07-31T09:05:28;7.00;;;3.75;;
49826;SDS011;35715;51.570;6.036;2023-07-31T09:07:55;6.40;;;3.97;;
49826;SDS011;35715;51.570;6.036;2023-07-31T09:10:22;4.63;;;3.50;;
49826;SDS011;35715;51.570;6.036;2023-07-31T09:12:48;5.95;;;3.63;;
49826;SDS011;35715;51.570;6.036;2023-07-31T09:15:14;7.07;;;4.15;;
49826;SDS011;35715;51.570;6.036;2023-07-31T09:17:40;5.38;;;3.42;;
49826;SDS011;35715;51.570;6.036;2023-07-31T09:20:18;8.30;;;3.65;;
49826;SDS011;35715;51.570;6.036;2023-07-31T09:22:45;5.80;;;3.90;;
49826;SDS011;35715;51.570;6.036;2023-07-31T09:25:21;8.48;;;4.32;;
49826;SDS011;35715;51.570;6.036;2023-07-31T09:27:59;5.18;;;3.72;;
49826;SDS011;35715;51.570;6.036;2023-07-31T09:30:50;5.72;;;3.53;;
49826;SDS011;35715;51.570;6.036;2023-07-31T09:33:17;6.38;;;4.00;;
49826;SDS011;35715;51.570;6.036;2023-07-31T09:35:43;6.10;;;3.92;;
49826;SDS011;35715;51.570;6.036;2023-07-31T09:38:10;9.30;;;4.28;;
49826;SDS011;35715;51.570;6.036;2023-07-31T09:40:37;5.68;;;4.25;;
49826;SDS011;35715;51.570;6.036;2023-07-31T09:43:12;6.05;;;5.03;;
49826;SDS011;35715;51.570;6.036;2023-07-31T09:45:40;9.38;;;4.70;;
49826;SDS011;35715;51.570;6.036;2023-07-31T09:48:09;7.95;;;5.03;;
49826;SDS011;35715;51.570;6.036;2023-07-31T09:50:38;29.23;;;5.43;;
49826;SDS011;35715;51.570;6.036;2023-07-31T09:53:05;10.30;;;5.80;;
49826;SDS011;35715;51.570;6.036;2023-07-31T09:55:31;11.35;;;4.80;;
49826;SDS011;35715;51.570;6.036;2023-07-31T09:57:57;11.07;;;5.45;;
49826;SDS011;35715;51.570;6.036;2023-07-31T10:00:23;7.18;;;5.63;;
49826;SDS011;35715;51.570;6.036;2023-07-31T10:02:52;11.27;;;6.18;;
49826;SDS011;35715;51.570;6.036;2023-07-31T10:05:19;5.32;;;4.45;;
49826;SDS011;35715;51.570;6.036;2023-07-31T10:07:54;6.00;;;3.80;;
49826;SDS011;35715;51.570;6.036;2023-07-31T10:10:23;9.52;;;4.40;;
49826;SDS011;35715;51.570;6.036;2023-07-31T10:12:50;12.88;;;5.47;;
49826;SDS011;35715;51.570;6.036;2023-07-31T10:15:17;26.35;;;5.63;;
49826;SDS011;35715;51.570;6.036;2023-07-31T10:17:43;6.95;;;4.00;;
49826;SDS011;35715;51.570;6.036;2023-07-31T10:20:09;7.30;;;4.68;;
49826;SDS011;35715;51.570;6.036;2023-07-31T10:22:35;10.48;;;5.28;;
49826;SDS011;35715;51.570;6.036;2023-07-31T10:25:01;10.27;;;4.25;;
49826;SDS011;35715;51.570;6.036;2023-07-31T10:27:27;5.97;;;4.07;;
49826;SDS011;35715;51.570;6.036;2023-07-31T10:29:56;17.05;;;5.25;;
49826;SDS011;35715;51.570;6.036;2023-07-31T10:32:23;8.05;;;5.07;;
49826;SDS011;35715;51.570;6.036;2023-07-31T10:34:50;8.40;;;5.15;;
49826;SDS011;35715;51.570;6.036;2023-07-31T10:42:29;6.95;;;5.05;;
49826;SDS011;35715;51.570;6.036;2023-07-31T10:45:06;10.82;;;5.15;;
49826;SDS011;35715;51.570;6.036;2023-07-31T10:47:44;8.77;;;4.85;;
49826;SDS011;35715;51.570;6.036;2023-07-31T10:50:18;6.15;;;4.30;;
49826;SDS011;35715;51.570;6.036;2023-07-31T10:52:48;6.10;;;4.35;;
49826;SDS011;35715;51.570;6.036;2023-07-31T10:58:08;4.90;;;4.10;;
49826;SDS011;35715;51.570;6.036;2023-07-31T11:00:38;8.32;;;4.50;;
49826;SDS011;35715;51.570;6.036;2023-07-31T11:03:08;7.80;;;4.55;;
49826;SDS011;35715;51.570;6.036;2023-07-31T11:05:41;4.10;;;3.45;;
49826;SDS011;35715;51.570;6.036;2023-07-31T11:08:13;5.07;;;4.20;;
49826;SDS011;35715;51.570;6.036;2023-07-31T11:10:39;4.50;;;4.10;;
49826;SDS011;35715;51.570;6.036;2023-07-31T11:13:05;5.90;;;3.90;;
49826;SDS011;35715;51.570;6.036;2023-07-31T11:15:31;5.57;;;3.53;;
49826;SDS011;35715;51.570;6.036;2023-07-31T11:17:56;5.25;;;3.63;;
49826;SDS011;35715;51.570;6.036;2023-07-31T11:20:24;4.35;;;3.67;;
49826;SDS011;35715;51.570;6.036;2023-07-31T11:22:49;4.57;;;4.07;;
49826;SDS011;35715;51.570;6.036;2023-07-31T11:25:15;6.72;;;3.97;;
49826;SDS011;35715;51.570;6.036;2023-07-31T11:27:41;3.75;;;3.45;;
49826;SDS011;35715;51.570;6.036;2023-07-31T11:30:08;5.30;;;4.35;;
49826;SDS011;35715;51.570;6.036;2023-07-31T11:32:36;4.47;;;4.00;;
49826;SDS011;35715;51.570;6.036;2023-07-31T11:35:02;6.95;;;3.97;;
49826;SDS011;35715;51.570;6.036;2023-07-31T11:37:39;8.70;;;4.55;;
49826;SDS011;35715;51.570;6.036;2023-07-31T11:40:08;5.72;;;3.53;;
49826;SDS011;35715;51.570;6.036;2023-07-31T11:42:34;6.13;;;4.38;;
49826;SDS011;35715;51.570;6.036;2023-07-31T11:45:04;14.02;;;3.47;;
49826;SDS011;35715;51.570;6.036;2023-07-31T11:47:31;5.60;;;4.38;;
49826;SDS011;35715;51.570;6.036;2023-07-31T11:49:59;5.38;;;3.40;;
49826;SDS011;35715;51.570;6.036;2023-07-31T11:52:26;4.13;;;3.40;;
49826;SDS011;35715;51.570;6.036;2023-07-31T11:54:52;8.07;;;4.70;;
49826;SDS011;35715;51.570;6.036;2023-07-31T11:57:18;5.55;;;3.80;;
49826;SDS011;35715;51.570;6.036;2023-07-31T11:59:44;5.85;;;3.70;;
49826;SDS011;35715;51.570;6.036;2023-07-31T12:02:10;6.00;;;4.20;;
49826;SDS011;35715;51.570;6.036;2023-07-31T12:04:38;6.40;;;4.32;;
49826;SDS011;35715;51.570;6.036;2023-07-31T12:07:04;6.03;;;3.80;;
49826;SDS011;35715;51.570;6.036;2023-07-31T12:09:30;5.72;;;4.28;;
49826;SDS011;35715;51.570;6.036;2023-07-31T12:11:55;4.32;;;3.55;;
49826;SDS011;35715;51.570;6.036;2023-07-31T12:14:24;5.15;;;3.22;;
49826;SDS011;35715;51.570;6.036;2023-07-31T12:16:54;3.83;;;3.13;;
49826;SDS011;35715;51.570;6.036;2023-07-31T12:19:21;6.88;;;3.10;;
49826;SDS011;35715;51.570;6.036;2023-07-31T12:21:47;5.82;;;4.07;;
49826;SDS011;35715;51.570;6.036;2023-07-31T12:24:12;3.65;;;2.67;;
49826;SDS011;35715;51.570;6.036;2023-07-31T12:26:38;4.88;;;2.63;;
49826;SDS011;35715;51.570;6.036;2023-07-31T12:29:05;4.63;;;2.67;;
49826;SDS011;35715;51.570;6.036;2023-07-31T12:31:33;3.83;;;2.83;;
49826;SDS011;35715;51.570;6.036;2023-07-31T12:33:59;4.22;;;3.42;;
49826;SDS011;35715;51.570;6.036;2023-07-31T12:36:26;4.13;;;3.50;;
49826;SDS011;35715;51.570;6.036;2023-07-31T12:38:53;3.35;;;2.97;;
49826;SDS011;35715;51.570;6.036;2023-07-31T12:41:21;4.25;;;3.42;;
49826;SDS011;35715;51.570;6.036;2023-07-31T12:43:46;6.03;;;4.03;;
49826;SDS011;35715;51.570;6.036;2023-07-31T12:46:13;5.22;;;3.65;;
49826;SDS011;35715;51.570;6.036;2023-07-31T12:48:39;3.45;;;3.08;;
49826;SDS011;35715;51.570;6.036;2023-07-31T12:51:05;6.25;;;3.67;;
49826;SDS011;35715;51.570;6.036;2023-07-31T12:53:37;7.47;;;4.25;;
49826;SDS011;35715;51.570;6.036;2023-07-31T12:56:02;3.92;;;3.40;;
49826;SDS011;35715;51.570;6.036;2023-07-31T12:58:28;7.15;;;4.30;;
49826;SDS011;35715;51.570;6.036;2023-07-31T13:00:53;4.13;;;3.40;;
49826;SDS011;35715;51.570;6.036;2023-07-31T13:03:19;5.88;;;4.78;;
49826;SDS011;35715;51.570;6.036;2023-07-31T13:05:44;4.18;;;3.80;;
49826;SDS011;35715;51.570;6.036;2023-07-31T13:08:13;4.50;;;3.78;;
49826;SDS011;35715;51.570;6.036;2023-07-31T13:10:40;4.15;;;3.75;;
49826;SDS011;35715;51.570;6.036;2023-07-31T13:13:06;6.68;;;3.75;;
49826;SDS011;35715;51.570;6.036;2023-07-31T13:15:31;4.20;;;3.72;;
49826;SDS011;35715;51.570;6.036;2023-07-31T13:17:57;7.03;;;3.83;;
49826;SDS011;35715;51.570;6.036;2023-07-31T13:20:22;4.30;;;3.90;;
49826;SDS011;35715;51.570;6.036;2023-07-31T13:22:47;5.88;;;3.60;;
49826;SDS011;35715;51.570;6.036;2023-07-31T13:25:13;5.80;;;3.95;;
49826;SDS011;35715;51.570;6.036;2023-07-31T13:27:38;46.85;;;6.25;;
49826;SDS011;35715;51.570;6.036;2023-07-31T13:30:04;6.30;;;4.60;;
49826;SDS011;35715;51.570;6.036;2023-07-31T13:32:30;7.60;;;4.75;;
49826;SDS011;35715;51.570;6.036;2023-07-31T13:34:55;6.28;;;4.47;;
49826;SDS011;35715;51.570;6.036;2023-07-31T13:37:20;6.47;;;4.38;;
49826;SDS011;35715;51.570;6.036;2023-07-31T13:39:46;10.85;;;5.10;;
49826;SDS011;35715;51.570;6.036;2023-07-31T13:42:11;5.45;;;4.60;;
49826;SDS011;35715;51.570;6.036;2023-07-31T13:44:46;5.40;;;4.47;;
49826;SDS011;35715;51.570;6.036;2023-07-31T13:47:11;6.93;;;4.63;;
49826;SDS011;35715;51.570;6.036;2023-07-31T13:49:37;7.70;;;5.90;;
49826;SDS011;35715;51.570;6.036;2023-07-31T13:52:03;8.23;;;5.53;;
49826;SDS011;35715;51.570;6.036;2023-07-31T13:54:29;7.72;;;5.82;;
49826;SDS011;35715;51.570;6.036;2023-07-31T13:56:55;6.53;;;3.95;;
49826;SDS011;35715;51.570;6.036;2023-07-31T13:59:21;6.15;;;4.53;;
49826;SDS011;35715;51.570;6.036;2023-07-31T14:01:46;6.68;;;5.72;;
49826;SDS011;35715;51.570;6.036;2023-07-31T14:04:12;6.80;;;4.60;;
49826;SDS011;35715;51.570;6.036;2023-07-31T14:06:38;10.05;;;6.03;;
49826;SDS011;35715;51.570;6.036;2023-07-31T14:09:04;10.75;;;6.07;;
49826;SDS011;35715;51.570;6.036;2023-07-31T14:11:32;9.55;;;5.53;;
49826;SDS011;35715;51.570;6.036;2023-07-31T14:13:58;8.27;;;5.53;;
49826;SDS011;35715;51.570;6.036;2023-07-31T14:16:24;16.02;;;7.15;;
49826;SDS011;35715;51.570;6.036;2023-07-31T14:18:49;10.50;;;5.18;;
49826;SDS011;35715;51.570;6.036;2023-07-31T14:21:15;9.90;;;5.15;;
49826;SDS011;35715;51.570;6.036;2023-07-31T14:23:40;17.88;;;7.65;;
49826;SDS011;35715;51.570;6.036;2023-07-31T14:26:06;9.85;;;5.95;;
49826;SDS011;35715;51.570;6.036;2023-07-31T14:28:32;8.07;;;4.95;;
49826;SDS011;35715;51.570;6.036;2023-07-31T14:30:57;6.65;;;5.78;;
49826;SDS011;35715;51.570;6.036;2023-07-31T14:33:23;7.68;;;6.25;;
49826;SDS011;35715;51.570;6.036;2023-07-31T14:35:48;9.48;;;6.22;;
49826;SDS011;35715;51.570;6.036;2023-07-31T14:38:14;9.45;;;6.35;;
49826;SDS011;35715;51.570;6.036;2023-07-31T14:40:39;13.52;;;7.88;;
49826;SDS011;35715;51.570;6.036;2023-07-31T14:43:05;9.70;;;6.35;;
49826;SDS011;35715;51.570;6.036;2023-07-31T14:45:30;9.10;;;6.75;;
49826;SDS011;35715;51.570;6.036;2023-07-31T14:47:56;10.23;;;7.43;;
49826;SDS011;35715;51.570;6.036;2023-07-31T14:50:21;7.50;;;5.47;;